sensor_id;sensor_type;location;lat;lon;timestamp;temperature;humidity
59651;DHT22;45954;49.768;8.636;2022-08-04T00:02:26;26.60;64.30
59651;DHT22;45954;49.768;8.636;2022-08-04T00:11:07;26.60;63.50
59651;DHT22;45954;49.768;8.636;2022-08-04T00:13:38;26.60;63.50
59651;DHT22;45954;49.768;8.636;2022-08-04T00:16:07;26.40;63.60
59651;DHT22;45954;49.768;8.636;2022-08-04T00:18:41;26.20;64.50
59651;DHT22;45954;49.768;8.636;2022-08-04T00:21:23;26.40;64.20
59651;DHT22;45954;49.768;8.636;2022-08-04T00:23:54;26.50;63.30
59651;DHT22;45954;49.768;8.636;2022-08-04T00:26:21;26.50;63.30
59651;DHT22;45954;49.768;8.636;2022-08-04T00:28:47;26.50;64.00
59651;DHT22;45954;49.768;8.636;2022-08-04T00:31:15;26.30;64.40
59651;DHT22;45954;49.768;8.636;2022-08-04T00:33:45;26.10;66.10
59651;DHT22;45954;49.768;8.636;2022-08-04T00:36:12;26.00;67.50
59651;DHT22;45954;49.768;8.636;2022-08-04T00:38:43;25.80;68.10
59651;DHT22;45954;49.768;8.636;2022-08-04T00:44:36;25.50;67.00
59651;DHT22;45954;49.768;8.636;2022-08-04T00:57:10;25.00;69.60
59651;DHT22;45954;49.768;8.636;2022-08-04T01:00:05;25.20;69.90
59651;DHT22;45954;49.768;8.636;2022-08-04T01:02:51;25.40;69.20
59651;DHT22;45954;49.768;8.636;2022-08-04T01:14:25;25.60;69.00
59651;DHT22;45954;49.768;8.636;2022-08-04T01:27:26;24.90;70.20
59651;DHT22;45954;49.768;8.636;2022-08-04T01:30:03;25.10;69.50
59651;DHT22;45954;49.768;8.636;2022-08-04T01:32:47;24.90;70.20
59651;DHT22;45954;49.768;8.636;2022-08-04T01:35:28;24.60;70.70
59651;DHT22;45954;49.768;8.636;2022-08-04T01:38:15;24.80;70.60
59651;DHT22;45954;49.768;8.636;2022-08-04T01:40:44;25.00;70.60
59651;DHT22;45954;49.768;8.636;2022-08-04T01:43:13;24.90;71.50
59651;DHT22;45954;49.768;8.636;2022-08-04T01:45:40;25.00;71.50
59651;DHT22;45954;49.768;8.636;2022-08-04T01:48:07;25.20;71.70
59651;DHT22;45954;49.768;8.636;2022-08-04T01:50:36;25.20;71.10
59651;DHT22;45954;49.768;8.636;2022-08-04T01:53:03;25.20;71.30
59651;DHT22;45954;49.768;8.636;2022-08-04T01:55:29;25.20;71.20
59651;DHT22;45954;49.768;8.636;2022-08-04T01:57:59;25.10;70.80
59651;DHT22;45954;49.768;8.636;2022-08-04T02:00:28;25.20;71.80
59651;DHT22;45954;49.768;8.636;2022-08-04T02:02:55;25.20;71.70
59651;DHT22;45954;49.768;8.636;2022-08-04T02:05:24;25.10;70.70
59651;DHT22;45954;49.768;8.636;2022-08-04T02:08:08;25.00;72.10
59651;DHT22;45954;49.768;8.636;2022-08-04T02:10:57;24.80;72.00
59651;DHT22;45954;49.768;8.636;2022-08-04T02:13:53;24.70;72.40
59651;DHT22;45954;49.768;8.636;2022-08-04T02:21:39;24.30;73.30
59651;DHT22;45954;49.768;8.636;2022-08-04T02:24:08;24.40;73.50
59651;DHT22;45954;49.768;8.636;2022-08-04T02:26:41;24.40;73.20
59651;DHT22;45954;49.768;8.636;2022-08-04T02:29:24;24.00;73.50
59651;DHT22;45954;49.768;8.636;2022-08-04T02:32:04;24.00;73.70
59651;DHT22;45954;49.768;8.636;2022-08-04T02:34:40;23.70;74.60
59651;DHT22;45954;49.768;8.636;2022-08-04T02:37:26;24.00;74.90
59651;DHT22;45954;49.768;8.636;2022-08-04T02:39:59;23.80;74.90
59651;DHT22;45954;49.768;8.636;2022-08-04T02:42:31;23.60;75.80
59651;DHT22;45954;49.768;8.636;2022-08-04T02:44:59;23.70;75.60
59651;DHT22;45954;49.768;8.636;2022-08-04T02:47:27;23.70;76.70
59651;DHT22;45954;49.768;8.636;2022-08-04T02:49:56;24.00;75.70
59651;DHT22;45954;49.768;8.636;2022-08-04T02:52:24;24.10;76.10
59651;DHT22;45954;49.768;8.636;2022-08-04T02:54:54;24.10;75.40
59651;DHT22;45954;49.768;8.636;2022-08-04T02:57:23;24.10;75.90
59651;DHT22;45954;49.768;8.636;2022-08-04T03:00:09;24.10;75.20
59651;DHT22;45954;49.768;8.636;2022-08-04T03:05:32;23.80;74.80
59651;DHT22;45954;49.768;8.636;2022-08-04T03:21:26;23.90;76.40
59651;DHT22;45954;49.768;8.636;2022-08-04T03:24:46;23.40;76.90
59651;DHT22;45954;49.768;8.636;2022-08-04T03:31:09;23.80;77.10
59651;DHT22;45954;49.768;8.636;2022-08-04T03:38:15;23.80;77.50
59651;DHT22;45954;49.768;8.636;2022-08-04T03:43:43;23.60;77.20
59651;DHT22;45954;49.768;8.636;2022-08-04T03:46:46;23.30;78.00
59651;DHT22;45954;49.768;8.636;2022-08-04T03:56:25;23.10;79.70
59651;DHT22;45954;49.768;8.636;2022-08-04T04:05:36;23.30;79.30
59651;DHT22;45954;49.768;8.636;2022-08-04T04:20:32;22.80;80.30
59651;DHT22;45954;49.768;8.636;2022-08-04T04:23:54;23.00;79.80
59651;DHT22;45954;49.768;8.636;2022-08-04T04:33:05;23.20;80.70
59651;DHT22;45954;49.768;8.636;2022-08-04T04:48:28;23.30;80.20
59651;DHT22;45954;49.768;8.636;2022-08-04T04:57:02;23.40;81.30
59651;DHT22;45954;49.768;8.636;2022-08-04T04:59:36;23.30;81.20
59651;DHT22;45954;49.768;8.636;2022-08-04T05:14:07;23.50;81.50
59651;DHT22;45954;49.768;8.636;2022-08-04T05:16:46;23.60;82.20
59651;DHT22;45954;49.768;8.636;2022-08-04T05:22:21;23.70;81.70
59651;DHT22;45954;49.768;8.636;2022-08-04T05:25:43;23.80;81.80
59651;DHT22;45954;49.768;8.636;2022-08-04T05:28:32;23.80;81.80
59651;DHT22;45954;49.768;8.636;2022-08-04T05:31:24;24.00;81.30
59651;DHT22;45954;49.768;8.636;2022-08-04T05:33:59;24.10;81.70
59651;DHT22;45954;49.768;8.636;2022-08-04T05:37:20;24.10;80.80
59651;DHT22;45954;49.768;8.636;2022-08-04T05:39:26;24.30;81.10
59651;DHT22;45954;49.768;8.636;2022-08-04T05:41:55;24.40;80.00
59651;DHT22;45954;49.768;8.636;2022-08-04T05:44:24;24.30;80.40
59651;DHT22;45954;49.768;8.636;2022-08-04T05:46:55;24.50;80.30
59651;DHT22;45954;49.768;8.636;2022-08-04T05:49:24;24.60;79.60
59651;DHT22;45954;49.768;8.636;2022-08-04T05:51:57;24.70;80.80
59651;DHT22;45954;49.768;8.636;2022-08-04T05:54:26;24.80;80.90
59651;DHT22;45954;49.768;8.636;2022-08-04T05:56:54;24.90;80.30
59651;DHT22;45954;49.768;8.636;2022-08-04T05:59:22;25.00;79.20
59651;DHT22;45954;49.768;8.636;2022-08-04T06:01:54;25.10;79.90
59651;DHT22;45954;49.768;8.636;2022-08-04T06:04:30;25.40;80.80
59651;DHT22;45954;49.768;8.636;2022-08-04T06:06:56;25.50;81.00
59651;DHT22;45954;49.768;8.636;2022-08-04T06:09:22;25.50;80.30
59651;DHT22;45954;49.768;8.636;2022-08-04T06:11:51;25.50;77.10
59651;DHT22;45954;49.768;8.636;2022-08-04T06:14:22;25.50;77.00
59651;DHT22;45954;49.768;8.636;2022-08-04T06:16:49;25.70;78.10
59651;DHT22;45954;49.768;8.636;2022-08-04T06:19:18;25.80;76.70
59651;DHT22;45954;49.768;8.636;2022-08-04T06:21:49;25.90;78.40
59651;DHT22;45954;49.768;8.636;2022-08-04T06:24:20;26.10;79.60
59651;DHT22;45954;49.768;8.636;2022-08-04T06:26:49;26.30;76.90
59651;DHT22;45954;49.768;8.636;2022-08-04T06:29:20;26.50;78.30
59651;DHT22;45954;49.768;8.636;2022-08-04T06:32:06;26.50;77.50
59651;DHT22;45954;49.768;8.636;2022-08-04T06:35:00;26.60;77.60
59651;DHT22;45954;49.768;8.636;2022-08-04T06:37:28;26.80;76.50
59651;DHT22;45954;49.768;8.636;2022-08-04T06:39:55;27.00;75.60
59651;DHT22;45954;49.768;8.636;2022-08-04T06:42:25;27.00;71.90
59651;DHT22;45954;49.768;8.636;2022-08-04T06:44:58;27.10;71.90
59651;DHT22;45954;49.768;8.636;2022-08-04T06:47:29;27.20;71.10
59651;DHT22;45954;49.768;8.636;2022-08-04T06:49:57;27.40;71.80
59651;DHT22;45954;49.768;8.636;2022-08-04T06:52:24;27.50;71.30
59651;DHT22;45954;49.768;8.636;2022-08-04T06:54:51;27.50;71.90
59651;DHT22;45954;49.768;8.636;2022-08-04T06:57:22;27.70;71.90
59651;DHT22;45954;49.768;8.636;2022-08-04T07:00:05;27.80;70.80
59651;DHT22;45954;49.768;8.636;2022-08-04T07:02:44;27.60;69.50
59651;DHT22;45954;49.768;8.636;2022-08-04T07:05:11;27.80;69.60
59651;DHT22;45954;49.768;8.636;2022-08-04T07:07:38;27.90;70.50
59651;DHT22;45954;49.768;8.636;2022-08-04T07:10:07;28.00;69.60
59651;DHT22;45954;49.768;8.636;2022-08-04T07:12:34;28.00;70.40
59651;DHT22;45954;49.768;8.636;2022-08-04T07:15:01;27.90;70.00
59651;DHT22;45954;49.768;8.636;2022-08-04T07:17:29;27.80;70.10
59651;DHT22;45954;49.768;8.636;2022-08-04T07:19:56;27.90;69.90
59651;DHT22;45954;49.768;8.636;2022-08-04T07:22:24;28.00;70.50
59651;DHT22;45954;49.768;8.636;2022-08-04T07:24:56;28.20;70.00
59651;DHT22;45954;49.768;8.636;2022-08-04T07:27:25;28.10;69.80
59651;DHT22;45954;49.768;8.636;2022-08-04T07:29:52;28.10;70.40
59651;DHT22;45954;49.768;8.636;2022-08-04T07:32:21;28.40;70.90
59651;DHT22;45954;49.768;8.636;2022-08-04T07:34:49;28.60;69.90
59651;DHT22;45954;49.768;8.636;2022-08-04T07:37:16;28.70;70.60
59651;DHT22;45954;49.768;8.636;2022-08-04T07:39:43;28.80;69.20
59651;DHT22;45954;49.768;8.636;2022-08-04T07:42:09;28.90;66.70
59651;DHT22;45954;49.768;8.636;2022-08-04T07:44:36;28.80;67.10
59651;DHT22;45954;49.768;8.636;2022-08-04T07:47:05;28.90;67.10
59651;DHT22;45954;49.768;8.636;2022-08-04T07:49:32;28.90;67.60
59651;DHT22;45954;49.768;8.636;2022-08-04T07:51:58;28.90;67.20
59651;DHT22;45954;49.768;8.636;2022-08-04T07:54:25;28.90;67.10
59651;DHT22;45954;49.768;8.636;2022-08-04T07:56:52;29.00;67.40
59651;DHT22;45954;49.768;8.636;2022-08-04T07:59:18;29.00;68.10
59651;DHT22;45954;49.768;8.636;2022-08-04T08:01:46;29.20;67.80
59651;DHT22;45954;49.768;8.636;2022-08-04T08:04:13;29.30;67.50
59651;DHT22;45954;49.768;8.636;2022-08-04T08:06:41;29.30;67.30
59651;DHT22;45954;49.768;8.636;2022-08-04T08:09:11;29.40;67.00
59651;DHT22;45954;49.768;8.636;2022-08-04T08:11:44;29.50;66.70
59651;DHT22;45954;49.768;8.636;2022-08-04T08:14:12;29.40;67.80
59651;DHT22;45954;49.768;8.636;2022-08-04T08:16:38;29.50;66.90
59651;DHT22;45954;49.768;8.636;2022-08-04T08:19:05;29.60;67.60
59651;DHT22;45954;49.768;8.636;2022-08-04T08:21:33;29.60;66.70
59651;DHT22;45954;49.768;8.636;2022-08-04T08:23:59;29.70;67.00
59651;DHT22;45954;49.768;8.636;2022-08-04T08:26:26;29.80;66.30
59651;DHT22;45954;49.768;8.636;2022-08-04T08:28:53;29.90;66.80
59651;DHT22;45954;49.768;8.636;2022-08-04T08:31:19;30.00;66.00
59651;DHT22;45954;49.768;8.636;2022-08-04T08:33:47;30.10;66.50
59651;DHT22;45954;49.768;8.636;2022-08-04T08:36:18;30.40;66.40
59651;DHT22;45954;49.768;8.636;2022-08-04T08:44:49;30.50;65.70
59651;DHT22;45954;49.768;8.636;2022-08-04T08:53:51;31.00;64.50
59651;DHT22;45954;49.768;8.636;2022-08-04T08:56:42;31.00;64.10
59651;DHT22;45954;49.768;8.636;2022-08-04T08:59:40;31.20;63.10
59651;DHT22;45954;49.768;8.636;2022-08-04T09:02:48;31.30;63.30
59651;DHT22;45954;49.768;8.636;2022-08-04T09:11:43;31.30;61.50
59651;DHT22;45954;49.768;8.636;2022-08-04T09:15:11;31.50;60.80
59651;DHT22;45954;49.768;8.636;2022-08-04T09:26:43;31.80;60.20
59651;DHT22;45954;49.768;8.636;2022-08-04T09:31:56;32.00;59.70
59651;DHT22;45954;49.768;8.636;2022-08-04T09:34:55;32.20;59.70
59651;DHT22;45954;49.768;8.636;2022-08-04T09:46:49;32.80;58.40
59651;DHT22;45954;49.768;8.636;2022-08-04T09:49:37;32.90;58.00
59651;DHT22;45954;49.768;8.636;2022-08-04T10:01:09;33.30;57.20
59651;DHT22;45954;49.768;8.636;2022-08-04T10:03:51;33.20;57.50
59651;DHT22;45954;49.768;8.636;2022-08-04T10:13:04;33.50;57.20
59651;DHT22;45954;49.768;8.636;2022-08-04T10:18:32;33.90;56.30
59651;DHT22;45954;49.768;8.636;2022-08-04T10:27:01;34.20;55.60
59651;DHT22;45954;49.768;8.636;2022-08-04T10:29:48;33.80;55.50
59651;DHT22;45954;49.768;8.636;2022-08-04T10:32:34;34.10;55.80
59651;DHT22;45954;49.768;8.636;2022-08-04T10:35:14;34.30;55.90
59651;DHT22;45954;49.768;8.636;2022-08-04T10:38:09;34.50;55.20
59651;DHT22;45954;49.768;8.636;2022-08-04T10:40:41;34.60;55.50
59651;DHT22;45954;49.768;8.636;2022-08-04T10:46:16;35.10;53.90
59651;DHT22;45954;49.768;8.636;2022-08-04T10:49:07;35.20;53.80
59651;DHT22;45954;49.768;8.636;2022-08-04T10:51:47;35.40;54.50
59651;DHT22;45954;49.768;8.636;2022-08-04T10:54:32;35.60;55.00
59651;DHT22;45954;49.768;8.636;2022-08-04T10:57:20;35.90;52.90
59651;DHT22;45954;49.768;8.636;2022-08-04T11:00:05;35.60;52.90
59651;DHT22;45954;49.768;8.636;2022-08-04T11:02:58;35.00;54.20
59651;DHT22;45954;49.768;8.636;2022-08-04T11:05:46;35.50;54.00
59651;DHT22;45954;49.768;8.636;2022-08-04T11:08:33;35.70;54.30
59651;DHT22;45954;49.768;8.636;2022-08-04T11:14:02;35.90;53.30
59651;DHT22;45954;49.768;8.636;2022-08-04T11:16:38;36.20;53.10
59651;DHT22;45954;49.768;8.636;2022-08-04T11:19:23;36.50;52.00
59651;DHT22;45954;49.768;8.636;2022-08-04T11:25:12;36.20;48.70
59651;DHT22;45954;49.768;8.636;2022-08-04T11:28:13;35.90;49.00
59651;DHT22;45954;49.768;8.636;2022-08-04T11:30:53;36.20;47.70
59651;DHT22;45954;49.768;8.636;2022-08-04T11:34:04;36.60;49.20
59651;DHT22;45954;49.768;8.636;2022-08-04T11:37:44;36.90;48.10
59651;DHT22;45954;49.768;8.636;2022-08-04T11:40:03;37.00;48.90
59651;DHT22;45954;49.768;8.636;2022-08-04T11:42:56;37.10;50.30
59651;DHT22;45954;49.768;8.636;2022-08-04T11:45:46;37.00;49.40
59651;DHT22;45954;49.768;8.636;2022-08-04T11:48:23;36.90;48.50
59651;DHT22;45954;49.768;8.636;2022-08-04T11:50:55;36.60;48.40
59651;DHT22;45954;49.768;8.636;2022-08-04T11:53:26;36.40;48.50
59651;DHT22;45954;49.768;8.636;2022-08-04T11:55:59;36.50;48.60
59651;DHT22;45954;49.768;8.636;2022-08-04T11:58:27;36.90;48.40
59651;DHT22;45954;49.768;8.636;2022-08-04T12:07:30;37.60;46.20
59651;DHT22;45954;49.768;8.636;2022-08-04T12:13:14;36.40;47.30
59651;DHT22;45954;49.768;8.636;2022-08-04T12:15:47;36.30;47.20
59651;DHT22;45954;49.768;8.636;2022-08-04T12:18:26;36.90;48.80
59651;DHT22;45954;49.768;8.636;2022-08-04T12:21:01;37.40;47.50
59651;DHT22;45954;49.768;8.636;2022-08-04T12:23:39;37.80;46.60
59651;DHT22;45954;49.768;8.636;2022-08-04T12:26:13;38.00;46.00
59651;DHT22;45954;49.768;8.636;2022-08-04T12:28:44;38.20;46.40
59651;DHT22;45954;49.768;8.636;2022-08-04T12:31:27;38.30;45.80
59651;DHT22;45954;49.768;8.636;2022-08-04T12:34:34;38.50;46.20
59651;DHT22;45954;49.768;8.636;2022-08-04T12:39:45;38.40;44.80
59651;DHT22;45954;49.768;8.636;2022-08-04T12:42:23;38.40;44.70
59651;DHT22;45954;49.768;8.636;2022-08-04T12:44:54;38.70;45.10
59651;DHT22;45954;49.768;8.636;2022-08-04T12:47:24;38.90;44.40
59651;DHT22;45954;49.768;8.636;2022-08-04T12:49:52;39.00;44.70
59651;DHT22;45954;49.768;8.636;2022-08-04T12:52:20;39.00;44.10
59651;DHT22;45954;49.768;8.636;2022-08-04T12:54:53;39.00;44.30
59651;DHT22;45954;49.768;8.636;2022-08-04T12:57:23;39.20;44.40
59651;DHT22;45954;49.768;8.636;2022-08-04T12:59:50;38.40;43.90
59651;DHT22;45954;49.768;8.636;2022-08-04T13:02:28;38.30;43.60
59651;DHT22;45954;49.768;8.636;2022-08-04T13:05:00;38.70;44.80
59651;DHT22;45954;49.768;8.636;2022-08-04T13:07:37;38.80;43.70
59651;DHT22;45954;49.768;8.636;2022-08-04T13:10:12;38.50;44.30
59651;DHT22;45954;49.768;8.636;2022-08-04T13:12:58;38.20;43.40
59651;DHT22;45954;49.768;8.636;2022-08-04T13:15:26;38.40;44.70
59651;DHT22;45954;49.768;8.636;2022-08-04T13:18:03;38.60;43.90
59651;DHT22;45954;49.768;8.636;2022-08-04T13:20:36;38.80;44.20
59651;DHT22;45954;49.768;8.636;2022-08-04T13:23:12;38.30;43.80
59651;DHT22;45954;49.768;8.636;2022-08-04T13:25:43;38.40;44.00
59651;DHT22;45954;49.768;8.636;2022-08-04T13:28:21;38.70;44.70
59651;DHT22;45954;49.768;8.636;2022-08-04T13:30:59;38.90;44.90
59651;DHT22;45954;49.768;8.636;2022-08-04T13:33:33;38.70;44.10
59651;DHT22;45954;49.768;8.636;2022-08-04T13:36:02;38.10;44.50
59651;DHT22;45954;49.768;8.636;2022-08-04T13:38:30;38.70;44.40
59651;DHT22;45954;49.768;8.636;2022-08-04T13:41:04;39.40;44.50
59651;DHT22;45954;49.768;8.636;2022-08-04T13:43:41;39.70;43.50
59651;DHT22;45954;49.768;8.636;2022-08-04T13:46:16;39.70;43.30
59651;DHT22;45954;49.768;8.636;2022-08-04T13:48:45;38.70;43.20
59651;DHT22;45954;49.768;8.636;2022-08-04T13:51:17;39.40;44.20
59651;DHT22;45954;49.768;8.636;2022-08-04T13:53:55;39.10;43.50
59651;DHT22;45954;49.768;8.636;2022-08-04T13:56:24;39.40;43.20
59651;DHT22;45954;49.768;8.636;2022-08-04T13:58:58;40.20;43.90
59651;DHT22;45954;49.768;8.636;2022-08-04T14:01:27;40.60;42.80
59651;DHT22;45954;49.768;8.636;2022-08-04T14:06:34;39.80;43.50
59651;DHT22;45954;49.768;8.636;2022-08-04T14:09:11;39.10;43.90
59651;DHT22;45954;49.768;8.636;2022-08-04T14:11:44;39.90;43.30
59651;DHT22;45954;49.768;8.636;2022-08-04T14:14:28;39.60;43.20
59651;DHT22;45954;49.768;8.636;2022-08-04T14:17:07;39.80;44.80
59651;DHT22;45954;49.768;8.636;2022-08-04T14:25:12;41.20;42.70
59651;DHT22;45954;49.768;8.636;2022-08-04T14:30:26;41.10;42.10
59651;DHT22;45954;49.768;8.636;2022-08-04T14:35:33;40.90;41.90
59651;DHT22;45954;49.768;8.636;2022-08-04T14:40:37;39.90;42.30
59651;DHT22;45954;49.768;8.636;2022-08-04T14:45:41;39.60;43.00
59651;DHT22;45954;49.768;8.636;2022-08-04T14:48:13;38.70;43.30
59651;DHT22;45954;49.768;8.636;2022-08-04T14:50:43;37.90;43.40
59651;DHT22;45954;49.768;8.636;2022-08-04T14:53:22;38.40;43.70
59651;DHT22;45954;49.768;8.636;2022-08-04T14:55:57;38.60;42.80
59651;DHT22;45954;49.768;8.636;2022-08-04T14:58:27;39.70;42.80
59651;DHT22;45954;49.768;8.636;2022-08-04T15:01:00;39.90;42.30
59651;DHT22;45954;49.768;8.636;2022-08-04T15:03:28;39.40;42.60
59651;DHT22;45954;49.768;8.636;2022-08-04T15:05:57;39.50;42.30
59651;DHT22;45954;49.768;8.636;2022-08-04T15:08:25;40.10;42.30
59651;DHT22;45954;49.768;8.636;2022-08-04T15:10:53;40.60;43.00
59651;DHT22;45954;49.768;8.636;2022-08-04T15:13:24;41.20;41.60
59651;DHT22;45954;49.768;8.636;2022-08-04T15:15:53;41.90;43.70
59651;DHT22;45954;49.768;8.636;2022-08-04T15:18:20;42.20;42.10
59651;DHT22;45954;49.768;8.636;2022-08-04T15:20:46;42.50;41.90
59651;DHT22;45954;49.768;8.636;2022-08-04T15:23:13;42.80;41.30
59651;DHT22;45954;49.768;8.636;2022-08-04T15:25:45;42.80;42.20
59651;DHT22;45954;49.768;8.636;2022-08-04T15:28:17;42.80;40.70
59651;DHT22;45954;49.768;8.636;2022-08-04T15:30:46;43.10;42.20
59651;DHT22;45954;49.768;8.636;2022-08-04T15:33:15;43.30;40.20
59651;DHT22;45954;49.768;8.636;2022-08-04T15:35:50;43.30;41.50
59651;DHT22;45954;49.768;8.636;2022-08-04T15:38:28;43.60;41.70
59651;DHT22;45954;49.768;8.636;2022-08-04T15:41:05;43.30;40.00
59651;DHT22;45954;49.768;8.636;2022-08-04T15:49:23;42.10;40.60
59651;DHT22;45954;49.768;8.636;2022-08-04T15:52:19;41.80;40.10
59651;DHT22;45954;49.768;8.636;2022-08-04T15:54:45;42.40;40.60
59651;DHT22;45954;49.768;8.636;2022-08-04T15:57:11;42.60;40.30
59651;DHT22;45954;49.768;8.636;2022-08-04T15:59:59;42.90;39.60
59651;DHT22;45954;49.768;8.636;2022-08-04T16:02:39;42.80;40.30
59651;DHT22;45954;49.768;8.636;2022-08-04T16:07:59;40.40;40.30
59651;DHT22;45954;49.768;8.636;2022-08-04T16:13:10;39.70;49.60
59651;DHT22;45954;49.768;8.636;2022-08-04T16:15:43;40.60;49.00
59651;DHT22;45954;49.768;8.636;2022-08-04T16:18:35;41.30;48.40
59651;DHT22;45954;49.768;8.636;2022-08-04T16:21:06;41.50;40.40
59651;DHT22;45954;49.768;8.636;2022-08-04T16:29:03;42.50;40.40
59651;DHT22;45954;49.768;8.636;2022-08-04T16:32:21;42.60;43.60
59651;DHT22;45954;49.768;8.636;2022-08-04T16:34:59;42.80;43.40
59651;DHT22;45954;49.768;8.636;2022-08-04T16:42:52;42.60;44.00
59651;DHT22;45954;49.768;8.636;2022-08-04T16:45:18;42.40;41.30
59651;DHT22;45954;49.768;8.636;2022-08-04T16:50:19;41.40;41.20
59651;DHT22;45954;49.768;8.636;2022-08-04T16:52:48;41.00;41.90
59651;DHT22;45954;49.768;8.636;2022-08-04T16:55:20;40.70;41.60
59651;DHT22;45954;49.768;8.636;2022-08-04T16:57:49;40.80;42.60
59651;DHT22;45954;49.768;8.636;2022-08-04T17:00:17;41.10;42.90
59651;DHT22;45954;49.768;8.636;2022-08-04T17:02:53;41.30;42.10
59651;DHT22;45954;49.768;8.636;2022-08-04T17:05:24;41.40;41.10
59651;DHT22;45954;49.768;8.636;2022-08-04T17:07:52;40.70;40.20
59651;DHT22;45954;49.768;8.636;2022-08-04T17:10:34;39.90;41.50
59651;DHT22;45954;49.768;8.636;2022-08-04T17:15:54;39.80;41.60
59651;DHT22;45954;49.768;8.636;2022-08-04T17:18:34;39.00;41.30
59651;DHT22;45954;49.768;8.636;2022-08-04T17:21:09;38.70;41.60
59651;DHT22;45954;49.768;8.636;2022-08-04T17:23:39;38.30;41.60
59651;DHT22;45954;49.768;8.636;2022-08-04T17:26:13;37.90;42.10
59651;DHT22;45954;49.768;8.636;2022-08-04T17:28:46;38.00;43.40
59651;DHT22;45954;49.768;8.636;2022-08-04T17:31:14;38.30;43.60
59651;DHT22;45954;49.768;8.636;2022-08-04T17:33:45;38.60;44.20
59651;DHT22;45954;49.768;8.636;2022-08-04T17:36:15;38.80;43.60
59651;DHT22;45954;49.768;8.636;2022-08-04T17:38:52;38.90;44.70
59651;DHT22;45954;49.768;8.636;2022-08-04T17:41:24;38.90;46.50
59651;DHT22;45954;49.768;8.636;2022-08-04T17:44:02;38.90;44.40
59651;DHT22;45954;49.768;8.636;2022-08-04T17:46:40;38.90;45.30
59651;DHT22;45954;49.768;8.636;2022-08-04T17:51:50;38.80;44.50
59651;DHT22;45954;49.768;8.636;2022-08-04T17:54:20;38.50;45.20
59651;DHT22;45954;49.768;8.636;2022-08-04T17:56:50;38.20;46.30
59651;DHT22;45954;49.768;8.636;2022-08-04T18:02:05;38.10;45.80
59651;DHT22;45954;49.768;8.636;2022-08-04T18:07:08;38.00;46.30
59651;DHT22;45954;49.768;8.636;2022-08-04T18:14:54;37.10;47.10
59651;DHT22;45954;49.768;8.636;2022-08-04T18:17:38;37.10;47.50
59651;DHT22;45954;49.768;8.636;2022-08-04T18:20:10;36.90;47.10
59651;DHT22;45954;49.768;8.636;2022-08-04T18:22:43;36.60;48.10
59651;DHT22;45954;49.768;8.636;2022-08-04T18:25:15;36.60;47.70
59651;DHT22;45954;49.768;8.636;2022-08-04T18:27:48;36.50;48.40
59651;DHT22;45954;49.768;8.636;2022-08-04T18:30:17;36.40;48.80
59651;DHT22;45954;49.768;8.636;2022-08-04T18:32:43;36.20;48.30
59651;DHT22;45954;49.768;8.636;2022-08-04T18:35:09;36.00;48.50
59651;DHT22;45954;49.768;8.636;2022-08-04T18:37:39;35.80;50.50
59651;DHT22;45954;49.768;8.636;2022-08-04T18:40:07;35.60;50.50
59651;DHT22;45954;49.768;8.636;2022-08-04T18:42:35;35.30;49.90
59651;DHT22;45954;49.768;8.636;2022-08-04T18:45:02;35.00;50.70
59651;DHT22;45954;49.768;8.636;2022-08-04T18:47:29;34.80;51.20
59651;DHT22;45954;49.768;8.636;2022-08-04T18:49:55;34.60;51.00
59651;DHT22;45954;49.768;8.636;2022-08-04T18:52:22;34.30;51.70
59651;DHT22;45954;49.768;8.636;2022-08-04T18:54:49;33.90;50.30
59651;DHT22;45954;49.768;8.636;2022-08-04T18:57:23;33.30;50.10
59651;DHT22;45954;49.768;8.636;2022-08-04T18:59:50;33.30;50.50
59651;DHT22;45954;49.768;8.636;2022-08-04T19:02:17;33.40;52.00
59651;DHT22;45954;49.768;8.636;2022-08-04T19:04:44;33.40;53.20
59651;DHT22;45954;49.768;8.636;2022-08-04T19:07:10;33.50;53.90
59651;DHT22;45954;49.768;8.636;2022-08-04T19:09:39;33.40;51.40
59651;DHT22;45954;49.768;8.636;2022-08-04T19:12:05;33.30;53.30
59651;DHT22;45954;49.768;8.636;2022-08-04T19:14:31;33.30;53.70
59651;DHT22;45954;49.768;8.636;2022-08-04T19:16:57;33.40;53.50
59651;DHT22;45954;49.768;8.636;2022-08-04T19:19:23;33.30;51.90
59651;DHT22;45954;49.768;8.636;2022-08-04T19:21:49;32.40;53.20
59651;DHT22;45954;49.768;8.636;2022-08-04T19:24:15;32.40;55.30
59651;DHT22;45954;49.768;8.636;2022-08-04T19:26:41;32.50;55.10
59651;DHT22;45954;49.768;8.636;2022-08-04T19:29:07;32.50;55.80
59651;DHT22;45954;49.768;8.636;2022-08-04T19:31:32;32.30;55.40
59651;DHT22;45954;49.768;8.636;2022-08-04T19:33:59;32.30;54.00
59651;DHT22;45954;49.768;8.636;2022-08-04T19:36:27;32.20;55.50
59651;DHT22;45954;49.768;8.636;2022-08-04T19:39:03;32.00;55.20
59651;DHT22;45954;49.768;8.636;2022-08-04T19:41:31;32.00;56.50
59651;DHT22;45954;49.768;8.636;2022-08-04T19:44:02;32.10;56.20
59651;DHT22;45954;49.768;8.636;2022-08-04T19:46:29;32.00;55.10
59651;DHT22;45954;49.768;8.636;2022-08-04T19:48:55;32.00;56.30
59651;DHT22;45954;49.768;8.636;2022-08-04T19:51:21;32.00;55.60
59651;DHT22;45954;49.768;8.636;2022-08-04T19:53:47;32.00;56.90
59651;DHT22;45954;49.768;8.636;2022-08-04T19:56:13;32.00;57.10
59651;DHT22;45954;49.768;8.636;2022-08-04T19:58:42;32.00;57.30
59651;DHT22;45954;49.768;8.636;2022-08-04T20:01:09;31.90;55.50
59651;DHT22;45954;49.768;8.636;2022-08-04T20:03:37;31.80;56.70
59651;DHT22;45954;49.768;8.636;2022-08-04T20:06:02;31.80;56.90
59651;DHT22;45954;49.768;8.636;2022-08-04T20:08:28;31.80;56.40
59651;DHT22;45954;49.768;8.636;2022-08-04T20:10:55;31.50;54.30
59651;DHT22;45954;49.768;8.636;2022-08-04T20:13:22;31.20;55.60
59651;DHT22;45954;49.768;8.636;2022-08-04T20:15:49;31.20;57.80
59651;DHT22;45954;49.768;8.636;2022-08-04T20:18:17;31.30;58.20
59651;DHT22;45954;49.768;8.636;2022-08-04T20:20:42;31.40;58.30
59651;DHT22;45954;49.768;8.636;2022-08-04T20:23:09;31.20;58.00
59651;DHT22;45954;49.768;8.636;2022-08-04T20:25:35;31.40;57.50
59651;DHT22;45954;49.768;8.636;2022-08-04T20:28:00;31.30;55.00
59651;DHT22;45954;49.768;8.636;2022-08-04T20:30:28;31.10;55.00
59651;DHT22;45954;49.768;8.636;2022-08-04T20:32:55;31.00;55.20
59651;DHT22;45954;49.768;8.636;2022-08-04T20:35:22;31.00;57.30
59651;DHT22;45954;49.768;8.636;2022-08-04T20:37:50;31.00;58.40
59651;DHT22;45954;49.768;8.636;2022-08-04T20:40:17;31.00;58.30
59651;DHT22;45954;49.768;8.636;2022-08-04T20:42:43;30.90;57.10
59651;DHT22;45954;49.768;8.636;2022-08-04T20:45:09;30.90;56.90
59651;DHT22;45954;49.768;8.636;2022-08-04T20:47:36;30.90;58.50
59651;DHT22;45954;49.768;8.636;2022-08-04T20:50:06;30.90;58.20
59651;DHT22;45954;49.768;8.636;2022-08-04T20:52:34;31.00;57.70
59651;DHT22;45954;49.768;8.636;2022-08-04T20:55:02;31.20;56.70